createdAt,value
2023-02-14T00:01:47.677Z,70.56
2023-02-14T00:04:17.408Z,70.61
2023-02-14T00:06:45.847Z,70.68
2023-02-14T00:09:16.651Z,70.79
2023-02-14T00:11:45.745Z,70.82
2023-02-14T00:14:31.946Z,70.85
2023-02-14T00:17:01.815Z,70.91
2023-02-14T00:19:31.555Z,71.31
2023-02-14T00:21:59.823Z,71.65
2023-02-14T00:24:28.132Z,71.67
2023-02-14T00:26:56.600Z,71.45
2023-02-14T00:29:27.284Z,71.04
2023-02-14T00:31:56.009Z,71.00
2023-02-14T00:34:27.151Z,71.13
2023-02-14T00:36:55.380Z,71.10
2023-02-14T00:39:23.626Z,70.97
2023-02-14T00:41:51.923Z,70.93
2023-02-14T00:44:20.236Z,71.12
2023-02-14T00:46:48.513Z,71.29
2023-02-14T00:49:16.827Z,71.38
2023-02-14T00:51:46.461Z,71.59
2023-02-14T00:54:14.738Z,71.63
2023-02-14T00:56:43.128Z,71.42
2023-02-14T00:59:11.417Z,71.33
2023-02-14T01:01:39.757Z,71.35
2023-02-14T01:04:08.669Z,71.82
2023-02-14T01:06:37.194Z,72.25
2023-02-14T01:09:06.924Z,73.03
2023-02-14T01:11:35.326Z,72.95
2023-02-14T01:14:03.907Z,73.07
2023-02-14T01:16:32.252Z,73.83
2023-02-14T01:19:01.537Z,74.31
2023-02-14T01:21:31.288Z,74.73
2023-02-14T01:24:01.581Z,74.93
2023-02-14T01:26:31.984Z,74.58
2023-02-14T01:29:03.377Z,74.26
2023-02-14T01:31:34.007Z,74.13
2023-02-14T01:34:02.467Z,74.05
2023-02-14T01:36:32.700Z,74.24
2023-02-14T01:39:04.000Z,74.08
2023-02-14T01:41:35.944Z,74.22
2023-02-14T01:44:05.956Z,74.45
2023-02-14T01:46:35.983Z,74.18
2023-02-14T01:49:10.599Z,74.15
2023-02-14T01:51:44.428Z,74.28
2023-02-14T01:54:13.868Z,74.39
2023-02-14T01:56:47.362Z,74.53
2023-02-14T01:59:19.185Z,74.19
2023-02-14T02:01:49.465Z,73.72
2023-02-14T02:04:23.882Z,73.51
2023-02-14T02:06:56.271Z,72.99
2023-02-14T02:09:32.140Z,72.62
2023-02-14T02:12:02.543Z,72.74
2023-02-14T02:14:31.186Z,72.74
2023-02-14T02:17:21.691Z,72.65
2023-02-14T02:20:24.646Z,72.69
2023-02-14T02:23:23.084Z,72.76
2023-02-14T02:26:14.976Z,72.96
2023-02-14T02:29:07.484Z,73.05
2023-02-14T02:32:08.708Z,73.35
2023-02-14T02:35:05.626Z,73.30
2023-02-14T02:37:44.118Z,73.33
2023-02-14T02:40:28.592Z,73.23
2023-02-14T02:43:08.020Z,73.36
2023-02-14T02:45:59.157Z,73.21
2023-02-14T02:48:34.212Z,73.47
2023-02-14T02:51:25.071Z,73.38
2023-02-14T02:53:58.748Z,73.26
2023-02-14T02:56:49.777Z,73.21
2023-02-14T02:59:23.134Z,73.29
2023-02-14T03:01:58.556Z,73.28
2023-02-14T03:04:46.372Z,73.05
2023-02-14T03:07:33.632Z,72.85
2023-02-14T03:10:04.737Z,72.83
2023-02-14T03:12:52.391Z,72.75
2023-02-14T03:15:27.280Z,72.75
2023-02-14T03:18:03.915Z,72.74
2023-02-14T03:20:43.866Z,72.77
2023-02-14T03:23:18.723Z,72.73
2023-02-14T03:25:56.890Z,72.82
2023-02-14T03:28:34.813Z,72.95
2023-02-14T03:31:08.977Z,72.86
2023-02-14T03:33:44.798Z,72.86
2023-02-14T03:36:17.838Z,72.93
2023-02-14T03:38:52.054Z,72.93
2023-02-14T03:41:23.666Z,72.96
2023-02-14T03:43:55.535Z,72.93
2023-02-14T03:46:28.779Z,72.80
2023-02-14T03:49:00.993Z,72.63
2023-02-14T03:51:34.488Z,72.55
2023-02-14T03:54:08.142Z,72.46
2023-02-14T03:56:39.119Z,72.58
2023-02-14T03:59:10.342Z,72.59
2023-02-14T04:01:44.562Z,72.75
2023-02-14T04:04:16.085Z,72.58
2023-02-14T04:06:44.758Z,72.55
2023-02-14T04:09:14.364Z,72.56
2023-02-14T04:11:42.907Z,72.90
2023-02-14T04:14:11.208Z,73.03
2023-02-14T04:16:53.383Z,72.99
2023-02-14T04:19:24.590Z,72.93
2023-02-14T04:21:53.423Z,73.05
2023-02-14T04:24:23.076Z,73.71
2023-02-14T04:27:05.210Z,73.76
2023-02-14T04:29:33.513Z,73.61
2023-02-14T04:32:01.841Z,73.54
2023-02-14T04:34:30.170Z,73.55
2023-02-14T04:36:58.389Z,73.25
2023-02-14T04:39:28.190Z,73.12
2023-02-14T04:41:56.555Z,73.90
2023-02-14T04:44:25.223Z,74.62
2023-02-14T04:46:53.652Z,75.19
2023-02-14T04:49:21.927Z,75.49
2023-02-14T04:51:50.235Z,75.88
2023-02-14T04:54:18.476Z,75.89
2023-02-14T04:56:48.084Z,76.08
2023-02-14T04:59:16.731Z,76.37
2023-02-14T05:01:45.033Z,76.05
2023-02-14T05:04:13.275Z,75.62
2023-02-14T05:06:41.538Z,74.84
2023-02-14T05:09:09.743Z,74.97
2023-02-14T05:11:38.602Z,75.17
2023-02-14T05:14:08.243Z,75.30
2023-02-14T05:16:36.734Z,75.73
2023-02-14T05:19:05.167Z,75.68
2023-02-14T05:21:33.422Z,75.26
2023-02-14T05:24:02.099Z,75.09
2023-02-14T05:26:30.362Z,76.31
2023-02-14T05:28:58.567Z,77.05
2023-02-14T05:31:28.409Z,77.08
2023-02-14T05:33:56.753Z,77.09
2023-02-14T05:36:25.129Z,77.15
2023-02-14T05:38:53.356Z,76.99
2023-02-14T05:41:21.627Z,77.06
2023-02-14T05:43:49.848Z,77.07
2023-02-14T05:46:18.046Z,76.85
2023-02-14T05:48:47.649Z,77.12
2023-02-14T05:51:15.908Z,77.40
2023-02-14T05:53:44.124Z,77.37
2023-02-14T05:56:12.334Z,77.17
2023-02-14T05:58:40.546Z,76.68
2023-02-14T06:01:08.815Z,76.23
2023-02-14T06:03:37.114Z,76.12
2023-02-14T06:06:07.284Z,76.37
2023-02-14T06:08:35.588Z,76.94
2023-02-14T06:11:03.849Z,77.32
2023-02-14T06:13:32.123Z,77.54
2023-02-14T06:16:00.379Z,77.58
2023-02-14T06:18:29.680Z,77.51
2023-02-14T06:20:58.320Z,77.47
2023-02-14T06:23:28.146Z,77.13
2023-02-14T06:25:56.458Z,77.05
2023-02-14T06:28:24.703Z,77.03
2023-02-14T06:30:53.033Z,76.86
2023-02-14T06:33:21.291Z,76.71
2023-02-14T06:35:49.483Z,76.51
2023-02-14T06:38:17.805Z,76.27
2023-02-14T06:40:49.642Z,75.96
2023-02-14T06:43:18.054Z,75.79
2023-02-14T06:45:47.979Z,75.79
2023-02-14T06:48:16.216Z,75.92
2023-02-14T06:50:44.404Z,76.12
2023-02-14T06:53:12.629Z,76.44
2023-02-14T06:55:42.958Z,76.46
2023-02-14T06:58:13.631Z,76.56
2023-02-14T07:00:42.217Z,76.71
2023-02-14T07:03:10.495Z,76.70
2023-02-14T07:05:38.909Z,76.66
2023-02-14T07:08:08.180Z,76.67
2023-02-14T07:10:36.636Z,76.66
2023-02-14T07:13:05.009Z,76.60
2023-02-14T07:15:35.124Z,76.32
2023-02-14T07:18:03.508Z,76.16
2023-02-14T07:20:31.876Z,76.05
2023-02-14T07:23:00.107Z,75.85
2023-02-14T07:25:29.031Z,75.67
2023-02-14T07:27:57.277Z,75.53
2023-02-14T07:30:25.824Z,75.12
2023-02-14T07:32:55.980Z,74.91
2023-02-14T07:35:24.355Z,74.64
2023-02-14T07:37:52.660Z,74.53
2023-02-14T07:40:21.345Z,74.34
2023-02-14T07:42:54.498Z,74.19
2023-02-14T07:45:23.115Z,73.95
2023-02-14T07:47:53.523Z,73.90
2023-02-14T07:50:24.431Z,73.58
2023-02-14T07:52:52.819Z,73.31
2023-02-14T07:55:21.436Z,72.96
2023-02-14T07:57:50.198Z,72.80
2023-02-14T08:00:19.106Z,72.64
2023-02-14T08:02:47.323Z,72.38
2023-02-14T08:05:15.983Z,72.10
2023-02-14T08:07:47.362Z,71.90
2023-02-14T08:10:16.034Z,71.63
2023-02-14T08:13:03.503Z,71.46
2023-02-14T08:15:51.886Z,71.19
2023-02-14T08:18:21.197Z,70.98
2023-02-14T08:20:50.805Z,70.69
2023-02-14T08:23:21.640Z,70.47
2023-02-14T08:25:51.228Z,70.35
2023-02-14T08:28:21.903Z,70.00
2023-02-14T08:30:50.842Z,69.62
2023-02-14T08:33:19.208Z,69.46
2023-02-14T08:35:47.588Z,69.41
2023-02-14T08:38:15.874Z,69.20
2023-02-14T08:40:45.658Z,68.97
2023-02-14T08:43:14.464Z,68.73
2023-02-14T08:45:42.970Z,68.72
2023-02-14T08:48:13.086Z,68.49
2023-02-14T08:50:42.090Z,68.39
2023-02-14T08:53:11.937Z,68.30
2023-02-14T08:55:40.984Z,68.16
2023-02-14T08:58:10.610Z,68.24
2023-02-14T09:00:39.447Z,68.10
2023-02-14T09:03:07.775Z,67.98
2023-02-14T09:05:36.013Z,68.00
2023-02-14T09:08:04.872Z,68.02
2023-02-14T09:10:33.150Z,68.06
2023-02-14T09:13:01.405Z,68.08
2023-02-14T09:15:31.500Z,67.83
2023-02-14T09:17:59.764Z,67.95
2023-02-14T09:20:28.126Z,68.11
2023-02-14T09:22:57.188Z,67.84
2023-02-14T09:25:25.455Z,68.33
2023-02-14T09:27:53.702Z,68.50
2023-02-14T09:30:22.046Z,68.30
2023-02-14T09:32:54.061Z,68.36
2023-02-14T09:35:39.679Z,68.58
2023-02-14T09:38:19.781Z,68.59
2023-02-14T09:40:50.542Z,68.92
2023-02-14T09:43:25.310Z,68.75
2023-02-14T09:45:56.275Z,68.87
2023-02-14T09:48:32.417Z,69.77
2023-02-14T09:51:03.331Z,69.16
2023-02-14T09:53:34.877Z,68.68
2023-02-14T09:56:10.248Z,69.35
2023-02-14T09:58:47.242Z,69.28
2023-02-14T10:01:23.297Z,69.42
2023-02-14T10:04:27.495Z,69.81
2023-02-14T10:06:59.758Z,69.55
2023-02-14T10:09:45.066Z,69.55
2023-02-14T10:12:21.441Z,69.90
2023-02-14T10:14:50.962Z,69.71
2023-02-14T10:17:23.660Z,69.49
2023-02-14T10:19:59.122Z,69.85
2023-02-14T10:22:39.670Z,69.85
2023-02-14T10:25:15.474Z,69.51
2023-02-14T10:27:47.293Z,69.84
2023-02-14T10:30:18.815Z,69.93
2023-02-14T10:32:49.720Z,70.41
2023-02-14T10:35:27.324Z,69.43
2023-02-14T10:38:06.598Z,70.42
2023-02-14T10:40:43.284Z,70.28
2023-02-14T10:43:23.693Z,70.74
2023-02-14T10:46:00.382Z,69.92
2023-02-14T10:48:48.031Z,70.89
2023-02-14T10:51:23.286Z,70.51
2023-02-14T10:54:01.749Z,70.63
2023-02-14T10:56:35.845Z,71.38
2023-02-14T10:59:16.059Z,70.84
2023-02-14T11:01:44.979Z,70.96
2023-02-14T11:04:14.714Z,71.10
2023-02-14T11:06:46.068Z,71.23
2023-02-14T11:09:14.337Z,70.60
2023-02-14T11:11:46.593Z,70.97
2023-02-14T11:14:28.215Z,72.11
2023-02-14T11:16:57.775Z,72.63
2023-02-14T11:19:29.661Z,72.06
2023-02-14T11:22:00.810Z,71.19
2023-02-14T11:24:31.374Z,71.46
2023-02-14T11:27:01.930Z,71.74
2023-02-14T11:29:34.510Z,70.42
2023-02-14T11:32:09.398Z,70.60
2023-02-14T11:34:40.981Z,70.93
2023-02-14T11:37:27.801Z,72.13
2023-02-14T11:39:58.265Z,70.57
2023-02-14T11:42:45.383Z,72.32
2023-02-14T11:45:35.146Z,69.26
2023-02-14T11:48:31.532Z,70.19
2023-02-14T11:51:09.000Z,71.30
2023-02-14T11:53:46.068Z,73.12
2023-02-14T11:56:15.534Z,70.72
2023-02-14T11:58:51.045Z,72.18
2023-02-14T12:01:24.333Z,70.64
2023-02-14T12:03:54.141Z,72.26
2023-02-14T12:06:25.867Z,72.23
2023-02-14T12:09:12.288Z,71.87
2023-02-14T12:11:41.128Z,72.51
2023-02-14T12:14:22.299Z,71.77
2023-02-14T12:16:57.112Z,70.13
2023-02-14T12:19:35.776Z,72.18
2023-02-14T12:22:06.105Z,70.97
2023-02-14T12:24:39.261Z,72.90
2023-02-14T12:27:20.115Z,71.74
2023-02-14T12:29:52.707Z,72.37
2023-02-14T12:32:26.095Z,72.15
2023-02-14T12:35:03.298Z,72.35
2023-02-14T12:37:40.671Z,72.09
2023-02-14T12:40:22.499Z,72.17
2023-02-14T12:43:10.702Z,72.39
2023-02-14T12:46:00.700Z,70.45
2023-02-14T12:48:39.574Z,72.67
2023-02-14T12:51:12.053Z,71.74
2023-02-14T12:54:03.170Z,72.26
2023-02-14T12:56:43.607Z,72.64
2023-02-14T12:59:29.286Z,72.60
2023-02-14T13:02:18.599Z,72.09
2023-02-14T13:05:00.732Z,73.04
2023-02-14T13:07:50.169Z,71.61
2023-02-14T13:10:30.128Z,72.63
2023-02-14T13:13:04.950Z,71.60
2023-02-14T13:15:43.288Z,72.79
2023-02-14T13:18:20.136Z,72.06
2023-02-14T13:20:52.848Z,72.93
2023-02-14T13:23:27.403Z,72.57
2023-02-14T13:26:00.540Z,73.83
2023-02-14T13:28:31.959Z,73.35
2023-02-14T13:31:01.873Z,72.33
2023-02-14T13:33:35.350Z,73.22
2023-02-14T13:36:07.791Z,72.64
2023-02-14T13:38:45.153Z,72.36
2023-02-14T13:41:14.832Z,72.32
2023-02-14T13:43:52.544Z,71.54
2023-02-14T13:46:49.213Z,72.22
2023-02-14T13:49:36.243Z,71.90
2023-02-14T13:52:06.498Z,72.64
2023-02-14T13:54:44.937Z,72.54
2023-02-14T13:57:33.970Z,72.35
2023-02-14T14:00:49.854Z,71.84
2023-02-14T14:03:56.633Z,72.27
2023-02-14T14:06:24.911Z,72.41
2023-02-14T14:08:56.162Z,71.78
2023-02-14T14:11:58.447Z,71.97
2023-02-14T14:14:36.432Z,72.54
2023-02-14T14:17:20.886Z,71.87
2023-02-14T14:19:53.737Z,72.09
2023-02-14T14:22:22.956Z,72.40
2023-02-14T14:25:02.503Z,72.97
2023-02-14T14:27:34.495Z,71.91
2023-02-14T14:30:04.190Z,72.02
2023-02-14T14:32:34.880Z,71.27
2023-02-14T14:35:08.247Z,71.33
2023-02-14T14:37:38.346Z,73.12
2023-02-14T14:40:09.616Z,70.96
2023-02-14T14:42:40.946Z,71.84
2023-02-14T14:45:20.715Z,72.32
2023-02-14T14:47:49.976Z,72.72
2023-02-14T14:50:23.851Z,71.31
2023-02-14T14:52:55.485Z,72.29
2023-02-14T14:55:27.571Z,72.06
2023-02-14T14:57:57.880Z,72.26
2023-02-14T15:00:29.575Z,71.87
2023-02-14T15:03:03.875Z,71.45
2023-02-14T15:05:36.522Z,71.34
2023-02-14T15:08:16.821Z,71.77
2023-02-14T15:10:52.510Z,71.02
2023-02-14T15:13:39.788Z,71.79
2023-02-14T15:16:08.993Z,71.61
2023-02-14T15:18:40.614Z,70.55
2023-02-14T15:21:10.561Z,72.25
2023-02-14T15:23:39.456Z,70.92
2023-02-14T15:26:12.691Z,72.15
2023-02-14T15:28:41.327Z,71.31
2023-02-14T15:31:09.992Z,70.13
2023-02-14T15:33:39.565Z,71.16
2023-02-14T15:36:17.272Z,71.46
2023-02-14T15:38:45.801Z,71.64
2023-02-14T15:41:15.272Z,70.68
2023-02-14T15:43:44.254Z,69.91
2023-02-14T15:46:20.791Z,69.88
2023-02-14T15:48:49.265Z,70.51
2023-02-14T15:51:21.892Z,70.71
2023-02-14T15:53:54.080Z,69.95
2023-02-14T15:56:26.167Z,70.21
2023-02-14T15:59:01.360Z,70.03
2023-02-14T16:01:31.372Z,70.03
2023-02-14T16:04:02.749Z,69.61
2023-02-14T16:06:35.937Z,70.61
2023-02-14T16:09:06.696Z,71.00
2023-02-14T16:11:37.233Z,70.06
2023-02-14T16:14:31.987Z,70.18
2023-02-14T16:17:02.589Z,69.95
2023-02-14T16:19:38.731Z,69.55
2023-02-14T16:22:09.547Z,69.95
2023-02-14T16:24:42.034Z,69.82
2023-02-14T16:27:13.343Z,69.84
2023-02-14T16:29:42.323Z,69.59
2023-02-14T16:32:17.450Z,69.57
2023-02-14T16:34:48.223Z,69.42
2023-02-14T16:37:23.552Z,69.41
2023-02-14T16:39:53.961Z,69.38
2023-02-14T16:42:22.264Z,69.10
2023-02-14T16:44:51.345Z,69.02
2023-02-14T16:47:21.545Z,68.79
2023-02-14T16:49:50.725Z,68.72
2023-02-14T16:52:23.818Z,68.75
2023-02-14T16:54:52.180Z,68.38
2023-02-14T16:57:26.323Z,68.43
2023-02-14T16:59:57.047Z,68.21
2023-02-14T17:02:28.326Z,68.28
2023-02-14T17:04:57.112Z,68.06
2023-02-14T17:07:28.066Z,68.06
2023-02-14T17:10:00.901Z,67.88
2023-02-14T17:12:33.450Z,67.83
2023-02-14T17:15:07.112Z,67.92
2023-02-14T17:17:36.628Z,67.72
2023-02-14T17:20:08.174Z,67.73
2023-02-14T17:22:38.273Z,67.68
2023-02-14T17:25:07.197Z,67.74
2023-02-14T17:27:35.527Z,67.59
2023-02-14T17:30:04.166Z,67.46
2023-02-14T17:32:32.471Z,67.57
2023-02-14T17:35:03.487Z,67.55
2023-02-14T17:37:32.200Z,67.49
2023-02-14T17:40:01.923Z,67.52
2023-02-14T17:42:32.341Z,67.53
2023-02-14T17:45:01.082Z,67.52
2023-02-14T17:47:30.348Z,67.45
2023-02-14T17:49:58.589Z,67.50
2023-02-14T17:52:29.771Z,67.52
2023-02-14T17:55:02.327Z,67.53
2023-02-14T17:57:42.611Z,67.44
2023-02-14T18:00:14.188Z,67.46
2023-02-14T18:02:42.961Z,67.45
2023-02-14T18:05:12.266Z,67.39
2023-02-14T18:07:40.529Z,67.49
2023-02-14T18:10:11.170Z,67.49
2023-02-14T18:12:40.185Z,67.57
2023-02-14T18:15:09.109Z,67.62
2023-02-14T18:17:38.793Z,67.65
2023-02-14T18:20:08.350Z,67.87
2023-02-14T18:22:36.789Z,67.78
2023-02-14T18:25:05.473Z,67.68
2023-02-14T18:27:35.061Z,67.69
2023-02-14T18:30:03.342Z,67.75
2023-02-14T18:32:31.974Z,67.88
2023-02-14T18:35:01.542Z,67.79
2023-02-14T18:37:29.753Z,67.75
2023-02-14T18:39:57.997Z,67.94
2023-02-14T18:42:26.292Z,67.96
2023-02-14T18:44:55.906Z,67.95
2023-02-14T18:47:24.200Z,67.99
2023-02-14T18:49:52.412Z,68.20
2023-02-14T18:52:20.633Z,68.14
2023-02-14T18:54:49.053Z,68.20
2023-02-14T18:57:17.336Z,68.13
2023-02-14T18:59:46.225Z,68.23
2023-02-14T19:02:15.887Z,68.26
2023-02-14T19:04:44.253Z,68.30
2023-02-14T19:07:12.559Z,68.42
2023-02-14T19:09:43.122Z,68.46
2023-02-14T19:12:11.703Z,68.42
2023-02-14T19:14:39.996Z,68.49
2023-02-14T19:17:08.300Z,68.56
2023-02-14T19:19:38.163Z,68.63
2023-02-14T19:22:06.481Z,68.59
2023-02-14T19:24:34.728Z,68.59
2023-02-14T19:27:03.813Z,68.80
2023-02-14T19:29:32.050Z,68.76
2023-02-14T19:32:00.502Z,68.79
2023-02-14T19:34:31.060Z,68.65
2023-02-14T19:37:03.619Z,68.69
2023-02-14T19:39:34.649Z,68.86
2023-02-14T19:42:04.380Z,69.01
2023-02-14T19:44:32.750Z,68.98
2023-02-14T19:47:04.234Z,68.88
2023-02-14T19:49:38.532Z,68.79
2023-02-14T19:52:17.246Z,68.81
2023-02-14T19:54:53.167Z,69.05
2023-02-14T19:57:21.393Z,69.00
2023-02-14T19:59:50.282Z,68.92
2023-02-14T20:02:20.069Z,68.96
2023-02-14T20:04:48.389Z,69.03
2023-02-14T20:07:19.493Z,69.10
2023-02-14T20:09:47.710Z,69.09
2023-02-14T20:12:15.950Z,69.16
2023-02-14T20:14:51.444Z,69.24
2023-02-14T20:17:20.268Z,69.35
2023-02-14T20:19:48.961Z,69.12
2023-02-14T20:22:20.324Z,69.02
2023-02-14T20:24:48.644Z,69.04
2023-02-14T20:27:17.221Z,69.24
2023-02-14T20:29:45.515Z,69.28
2023-02-14T20:32:15.992Z,69.39
2023-02-14T20:34:44.226Z,69.20
2023-02-14T20:37:13.144Z,69.12
2023-02-14T20:39:43.482Z,69.34
2023-02-14T20:42:11.775Z,69.27
2023-02-14T20:44:41.566Z,69.10
2023-02-14T20:47:11.274Z,69.21
2023-02-14T20:49:41.331Z,69.30
2023-02-14T20:52:10.053Z,69.28
2023-02-14T20:54:40.282Z,69.27
2023-02-14T20:57:09.973Z,69.30
2023-02-14T20:59:44.643Z,69.23
2023-02-14T21:02:13.331Z,69.23
2023-02-14T21:04:42.228Z,69.39
2023-02-14T21:07:10.696Z,69.38
2023-02-14T21:09:39.684Z,69.52
2023-02-14T21:12:09.601Z,69.50
2023-02-14T21:14:38.981Z,69.48
2023-02-14T21:17:07.250Z,69.50
2023-02-14T21:19:35.543Z,69.52
2023-02-14T21:22:04.268Z,69.52
2023-02-14T21:24:32.562Z,69.51
2023-02-14T21:27:01.750Z,69.68
2023-02-14T21:29:31.477Z,69.81
2023-02-14T21:32:02.462Z,69.74
2023-02-14T21:34:31.875Z,69.63
2023-02-14T21:37:00.067Z,69.71
2023-02-14T21:39:30.954Z,69.71
2023-02-14T21:41:59.747Z,69.74
2023-02-14T21:44:45.588Z,69.68
2023-02-14T21:47:15.343Z,69.88
2023-02-14T21:50:00.621Z,69.95
2023-02-14T21:52:30.245Z,70.05
2023-02-14T21:54:58.564Z,69.94
2023-02-14T21:57:27.098Z,69.84
2023-02-14T21:59:55.320Z,69.87
2023-02-14T22:02:25.003Z,69.96
2023-02-14T22:04:53.259Z,70.07
2023-02-14T22:07:21.484Z,70.07
2023-02-14T22:09:49.751Z,70.02
2023-02-14T22:12:17.999Z,70.00
2023-02-14T22:14:46.232Z,70.12
2023-02-14T22:17:14.482Z,70.03
2023-02-14T22:19:44.088Z,70.10
2023-02-14T22:22:12.310Z,70.17
2023-02-14T22:24:40.856Z,70.20
2023-02-14T22:27:09.123Z,70.20
2023-02-14T22:29:37.941Z,70.25
2023-02-14T22:32:06.604Z,70.22
2023-02-14T22:34:34.989Z,70.32
2023-02-14T22:37:04.627Z,70.26
2023-02-14T22:39:33.397Z,70.39
2023-02-14T22:42:05.298Z,70.43
2023-02-14T22:44:33.932Z,70.41
2023-02-14T22:47:02.369Z,70.30
2023-02-14T22:49:30.836Z,70.37
2023-02-14T22:51:59.089Z,70.42
2023-02-14T22:54:28.661Z,70.35
2023-02-14T22:56:56.889Z,70.23
2023-02-14T22:59:28.110Z,70.07
2023-02-14T23:01:56.373Z,70.02
2023-02-14T23:04:25.654Z,70.03
2023-02-14T23:06:54.594Z,70.10
2023-02-14T23:09:24.404Z,70.27
2023-02-14T23:11:53.986Z,70.32
2023-02-14T23:14:39.617Z,70.35
2023-02-14T23:17:25.500Z,70.49
2023-02-14T23:20:10.895Z,70.45
2023-02-14T23:22:41.469Z,70.37
2023-02-14T23:25:11.580Z,70.35
2023-02-14T23:27:44.087Z,70.45
2023-02-14T23:30:15.767Z,70.69
2023-02-14T23:32:44.486Z,70.65
2023-02-14T23:35:13.061Z,70.56
2023-02-14T23:37:41.760Z,70.53
2023-02-14T23:40:10.920Z,70.43
2023-02-14T23:42:40.989Z,70.41
2023-02-14T23:45:27.183Z,70.52
2023-02-14T23:47:55.453Z,70.34
2023-02-14T23:50:23.717Z,70.16
2023-02-14T23:52:51.959Z,69.97
2023-02-14T23:55:20.252Z,69.93
2023-02-14T23:57:49.882Z,70.11
